Abu Musa Island Airport

About
Name: Abu Musa Island Airport
Identifier:  AEU/OIBA
Local Time:  21. Sep 22:41 UTC+0430
Location
Abu Musa Island
  Iran

Statistics
Flights per Day:
0 flights
Distance: 200km (124mi)
Flights delayed:
-100% (0 flights per day delayed)
Delay Average: 13009818 minutes
Current Weather
 33 C (Humidity: 75%)
  6kt (11km/h / 6mph) from 260°
  4km (2 mi.)
 METAR OIBA 211500Z 26006KT 4000 HZ NSC 33/28 Q1002

Current Delays

Departures
N/A
Arrivals
N/A

Destinations

Top Destinations
Airport Flights
per week
Seats
per week
  Bandar Abbas (BND) 0 - 0 0

Airlines & Planes

Top Airlines
Airline Flights
per Day
Seats
per Day
  Kish Air 0 -
Top Plane Types
Model Flights Seats
Fokker 100 0.1/day - 0